sensor_id;sensor_type;location;lat;lon;timestamp;pressure;altitude;pressure_sealevel;temperature;humidity
42705;BME280;28342;42.594;23.414;2022-10-20T00:00:53;94932.84;;;14.48;68.79
42705;BME280;28342;42.594;23.414;2022-10-20T00:03:19;94943.66;;;14.52;68.84
42705;BME280;28342;42.594;23.414;2022-10-20T00:05:45;94960.31;;;14.57;69.10
42705;BME280;28342;42.594;23.414;2022-10-20T00:08:10;94951.22;;;14.50;68.82
42705;BME280;28342;42.594;23.414;2022-10-20T00:10:36;94949.03;;;14.43;69.35
42705;BME280;28342;42.594;23.414;2022-10-20T00:13:02;94949.81;;;14.35;69.64
42705;BME280;28342;42.594;23.414;2022-10-20T00:15:27;94956.13;;;14.30;69.21
42705;BME280;28342;42.594;23.414;2022-10-20T00:17:52;94956.59;;;14.24;69.55
42705;BME280;28342;42.594;23.414;2022-10-20T00:20:18;94961.78;;;14.29;69.54
42705;BME280;28342;42.594;23.414;2022-10-20T00:22:43;94957.09;;;14.26;69.10
42705;BME280;28342;42.594;23.414;2022-10-20T00:25:09;94945.19;;;14.15;68.85
42705;BME280;28342;42.594;23.414;2022-10-20T00:27:34;94949.69;;;14.23;68.57
42705;BME280;28342;42.594;23.414;2022-10-20T00:29:59;94947.22;;;14.18;67.99
42705;BME280;28342;42.594;23.414;2022-10-20T00:32:25;94946.94;;;14.11;67.98
42705;BME280;28342;42.594;23.414;2022-10-20T00:34:51;94935.50;;;14.01;67.53
42705;BME280;28342;42.594;23.414;2022-10-20T00:37:16;94943.81;;;13.91;68.09
42705;BME280;28342;42.594;23.414;2022-10-20T00:39:41;94949.63;;;13.93;67.21
42705;BME280;28342;42.594;23.414;2022-10-20T00:42:10;94945.25;;;13.89;67.03
42705;BME280;28342;42.594;23.414;2022-10-20T00:44:55;94952.63;;;13.83;66.70
42705;BME280;28342;42.594;23.414;2022-10-20T00:49:49;94948.22;;;13.87;66.82
42705;BME280;28342;42.594;23.414;2022-10-20T00:52:19;94927.38;;;13.81;66.17
42705;BME280;28342;42.594;23.414;2022-10-20T00:54:45;94933.63;;;13.93;65.71
42705;BME280;28342;42.594;23.414;2022-10-20T00:57:11;94928.34;;;13.67;66.09
42705;BME280;28342;42.594;23.414;2022-10-20T00:59:38;94937.88;;;13.94;65.66
42705;BME280;28342;42.594;23.414;2022-10-20T01:02:06;94924.41;;;13.82;65.49
42705;BME280;28342;42.594;23.414;2022-10-20T01:04:33;94939.44;;;13.95;64.94
42705;BME280;28342;42.594;23.414;2022-10-20T01:07:00;94942.56;;;13.89;64.79
42705;BME280;28342;42.594;23.414;2022-10-20T01:09:26;94944.78;;;13.95;64.80
42705;BME280;28342;42.594;23.414;2022-10-20T01:17:47;94946.94;;;13.93;63.93
42705;BME280;28342;42.594;23.414;2022-10-20T01:24:02;94951.38;;;13.81;64.09
42705;BME280;28342;42.594;23.414;2022-10-20T01:26:32;94948.06;;;13.84;64.00
42705;BME280;28342;42.594;23.414;2022-10-20T01:29:08;94937.69;;;13.91;63.49
42705;BME280;28342;42.594;23.414;2022-10-20T01:31:46;94954.19;;;13.84;63.65
42705;BME280;28342;42.594;23.414;2022-10-20T01:34:55;94937.44;;;13.66;63.27
42705;BME280;28342;42.594;23.414;2022-10-20T01:37:32;94951.38;;;13.72;63.36
42705;BME280;28342;42.594;23.414;2022-10-20T01:40:08;94941.34;;;13.69;63.78
42705;BME280;28342;42.594;23.414;2022-10-20T01:42:36;94953.44;;;13.66;64.15
42705;BME280;28342;42.594;23.414;2022-10-20T01:45:04;94936.19;;;13.64;63.99
42705;BME280;28342;42.594;23.414;2022-10-20T01:47:32;94942.91;;;13.70;64.03
42705;BME280;28342;42.594;23.414;2022-10-20T01:50:00;94956.72;;;13.72;64.15
42705;BME280;28342;42.594;23.414;2022-10-20T01:52:28;94957.34;;;13.69;64.13
42705;BME280;28342;42.594;23.414;2022-10-20T01:54:54;94957.34;;;13.69;64.56
42705;BME280;28342;42.594;23.414;2022-10-20T02:05:42;94960.50;;;13.54;65.21
42705;BME280;28342;42.594;23.414;2022-10-20T02:10:47;94968.31;;;13.59;65.29
42705;BME280;28342;42.594;23.414;2022-10-20T02:13:15;94967.38;;;13.37;65.82
42705;BME280;28342;42.594;23.414;2022-10-20T02:15:46;94970.34;;;13.44;65.81
42705;BME280;28342;42.594;23.414;2022-10-20T02:18:16;94959.88;;;13.39;65.58
42705;BME280;28342;42.594;23.414;2022-10-20T02:20:47;94986.50;;;13.57;65.07
42705;BME280;28342;42.594;23.414;2022-10-20T02:23:14;94981.66;;;13.33;66.08
42705;BME280;28342;42.594;23.414;2022-10-20T02:25:40;94974.56;;;13.28;66.09
42705;BME280;28342;42.594;23.414;2022-10-20T02:28:09;94978.03;;;13.37;65.78
42705;BME280;28342;42.594;23.414;2022-10-20T02:30:37;94987.28;;;13.40;65.76
42705;BME280;28342;42.594;23.414;2022-10-20T02:33:04;94980.22;;;13.18;66.45
42705;BME280;28342;42.594;23.414;2022-10-20T02:35:31;94975.84;;;13.22;65.85
42705;BME280;28342;42.594;23.414;2022-10-20T02:37:57;94985.41;;;13.23;66.30
42705;BME280;28342;42.594;23.414;2022-10-20T02:40:23;94987.44;;;13.26;66.29
42705;BME280;28342;42.594;23.414;2022-10-20T02:42:49;94987.59;;;13.30;65.84
42705;BME280;28342;42.594;23.414;2022-10-20T02:45:14;95005.31;;;13.34;65.97
42705;BME280;28342;42.594;23.414;2022-10-20T02:47:40;94985.34;;;13.14;66.07
42705;BME280;28342;42.594;23.414;2022-10-20T02:50:06;94994.13;;;13.15;66.24
42705;BME280;28342;42.594;23.414;2022-10-20T02:52:32;95001.16;;;13.11;66.42
42705;BME280;28342;42.594;23.414;2022-10-20T02:54:57;94986.72;;;12.95;66.19
42705;BME280;28342;42.594;23.414;2022-10-20T02:57:22;95010.25;;;13.10;66.22
42705;BME280;28342;42.594;23.414;2022-10-20T02:59:48;94988.28;;;12.96;66.62
42705;BME280;28342;42.594;23.414;2022-10-20T03:02:13;94981.06;;;12.88;66.70
42705;BME280;28342;42.594;23.414;2022-10-20T03:04:39;94991.38;;;12.80;67.40
42705;BME280;28342;42.594;23.414;2022-10-20T03:07:12;94965.66;;;12.67;66.71
42705;BME280;28342;42.594;23.414;2022-10-20T03:09:47;94982.28;;;12.81;66.62
42705;BME280;28342;42.594;23.414;2022-10-20T03:12:15;95003.72;;;12.76;67.13
42705;BME280;28342;42.594;23.414;2022-10-20T03:14:41;94996.53;;;12.77;67.05
42705;BME280;28342;42.594;23.414;2022-10-20T03:17:07;95020.19;;;12.78;67.07
42705;BME280;28342;42.594;23.414;2022-10-20T03:19:33;95020.34;;;12.82;67.14
42705;BME280;28342;42.594;23.414;2022-10-20T03:21:58;95007.91;;;12.69;67.53
42705;BME280;28342;42.594;23.414;2022-10-20T03:24:24;95012.94;;;12.70;67.32
42705;BME280;28342;42.594;23.414;2022-10-20T03:26:49;95011.91;;;12.49;68.25
42705;BME280;28342;42.594;23.414;2022-10-20T03:29:15;95011.59;;;12.42;68.78
42705;BME280;28342;42.594;23.414;2022-10-20T03:31:40;95014.88;;;12.47;68.35
42705;BME280;28342;42.594;23.414;2022-10-20T03:34:05;95009.09;;;12.54;68.22
42705;BME280;28342;42.594;23.414;2022-10-20T03:36:31;95020.84;;;12.53;68.29
42705;BME280;28342;42.594;23.414;2022-10-20T03:38:56;95012.16;;;12.39;68.72
42705;BME280;28342;42.594;23.414;2022-10-20T03:41:21;95013.41;;;12.33;69.12
42705;BME280;28342;42.594;23.414;2022-10-20T03:43:47;95015.44;;;12.36;68.70
42705;BME280;28342;42.594;23.414;2022-10-20T03:46:12;95011.28;;;12.21;69.47
42705;BME280;28342;42.594;23.414;2022-10-20T03:48:38;95021.94;;;12.21;69.08
42705;BME280;28342;42.594;23.414;2022-10-20T03:51:04;95023.09;;;12.29;68.96
42705;BME280;28342;42.594;23.414;2022-10-20T03:53:30;95022.09;;;12.24;68.70
42705;BME280;28342;42.594;23.414;2022-10-20T03:55:56;95014.50;;;12.09;68.86
42705;BME280;28342;42.594;23.414;2022-10-20T03:58:21;95029.25;;;12.15;69.28
42705;BME280;28342;42.594;23.414;2022-10-20T04:00:47;95027.56;;;12.19;69.29
42705;BME280;28342;42.594;23.414;2022-10-20T04:03:13;95021.28;;;11.93;70.04
42705;BME280;28342;42.594;23.414;2022-10-20T04:05:41;95029.97;;;12.07;69.66
42705;BME280;28342;42.594;23.414;2022-10-20T04:08:06;95041.81;;;12.23;69.68
42705;BME280;28342;42.594;23.414;2022-10-20T04:10:32;95039.75;;;12.20;69.62
42705;BME280;28342;42.594;23.414;2022-10-20T04:13:01;95036.06;;;12.30;69.23
42705;BME280;28342;42.594;23.414;2022-10-20T04:15:30;95026.94;;;12.22;69.20
42705;BME280;28342;42.594;23.414;2022-10-20T04:17:55;95037.78;;;12.26;69.39
42705;BME280;28342;42.594;23.414;2022-10-20T04:20:21;95035.13;;;12.26;69.35
42705;BME280;28342;42.594;23.414;2022-10-20T04:22:46;95025.50;;;12.16;69.27
42705;BME280;28342;42.594;23.414;2022-10-20T04:25:14;95040.50;;;12.12;70.12
42705;BME280;28342;42.594;23.414;2022-10-20T04:27:40;95026.59;;;11.93;70.05
42705;BME280;28342;42.594;23.414;2022-10-20T04:30:06;95008.31;;;11.78;70.62
42705;BME280;28342;42.594;23.414;2022-10-20T04:32:31;95037.94;;;12.07;69.95
42705;BME280;28342;42.594;23.414;2022-10-20T04:34:57;95028.66;;;11.96;70.26
42705;BME280;28342;42.594;23.414;2022-10-20T04:37:22;95039.06;;;11.84;71.28
42705;BME280;28342;42.594;23.414;2022-10-20T04:39:48;95041.59;;;11.89;70.87
42705;BME280;28342;42.594;23.414;2022-10-20T04:42:16;95034.88;;;11.78;70.98
42705;BME280;28342;42.594;23.414;2022-10-20T04:44:41;95049.06;;;11.87;70.92
42705;BME280;28342;42.594;23.414;2022-10-20T04:47:06;95059.34;;;11.80;71.34
42705;BME280;28342;42.594;23.414;2022-10-20T04:49:32;95056.75;;;11.75;71.27
42705;BME280;28342;42.594;23.414;2022-10-20T04:51:57;95062.00;;;11.80;71.07
42705;BME280;28342;42.594;23.414;2022-10-20T04:54:23;95053.94;;;11.71;71.83
42705;BME280;28342;42.594;23.414;2022-10-20T04:56:48;95056.25;;;11.50;72.83
42705;BME280;28342;42.594;23.414;2022-10-20T04:59:13;95062.59;;;11.63;71.96
42705;BME280;28342;42.594;23.414;2022-10-20T05:01:39;95054.44;;;11.59;71.73
42705;BME280;28342;42.594;23.414;2022-10-20T05:04:04;95062.31;;;11.64;71.57
42705;BME280;28342;42.594;23.414;2022-10-20T05:06:31;95056.66;;;11.44;71.55
42705;BME280;28342;42.594;23.414;2022-10-20T05:08:59;95081.00;;;11.59;71.52
42705;BME280;28342;42.594;23.414;2022-10-20T05:11:28;95078.00;;;11.52;71.69
42705;BME280;28342;42.594;23.414;2022-10-20T05:13:54;95080.66;;;11.52;71.95
42705;BME280;28342;42.594;23.414;2022-10-20T05:16:20;95086.16;;;11.42;71.73
42705;BME280;28342;42.594;23.414;2022-10-20T05:18:46;95072.81;;;11.20;72.08
42705;BME280;28342;42.594;23.414;2022-10-20T05:21:18;95067.59;;;11.15;71.97
42705;BME280;28342;42.594;23.414;2022-10-20T05:23:44;95096.19;;;11.31;72.04
42705;BME280;28342;42.594;23.414;2022-10-20T05:26:15;95088.53;;;11.30;72.19
42705;BME280;28342;42.594;23.414;2022-10-20T05:28:46;95087.97;;;11.19;72.37
42705;BME280;28342;42.594;23.414;2022-10-20T05:31:14;95089.13;;;11.13;72.55
42705;BME280;28342;42.594;23.414;2022-10-20T05:33:43;95084.22;;;11.06;72.05
42705;BME280;28342;42.594;23.414;2022-10-20T05:36:20;95106.34;;;11.16;72.17
42705;BME280;28342;42.594;23.414;2022-10-20T05:38:46;95117.25;;;11.14;72.35
42705;BME280;28342;42.594;23.414;2022-10-20T05:41:16;95111.16;;;10.86;73.34
42705;BME280;28342;42.594;23.414;2022-10-20T05:43:49;95120.00;;;10.82;73.61
42705;BME280;28342;42.594;23.414;2022-10-20T05:46:16;95115.56;;;10.77;73.84
42705;BME280;28342;42.594;23.414;2022-10-20T05:48:41;95122.03;;;10.71;74.12
42705;BME280;28342;42.594;23.414;2022-10-20T05:51:19;95144.97;;;10.81;74.06
42705;BME280;28342;42.594;23.414;2022-10-20T05:53:45;95142.19;;;10.72;74.45
42705;BME280;28342;42.594;23.414;2022-10-20T05:56:14;95134.91;;;10.64;74.36
42705;BME280;28342;42.594;23.414;2022-10-20T05:58:39;95154.75;;;10.66;74.93
42705;BME280;28342;42.594;23.414;2022-10-20T06:03:36;95150.91;;;10.59;75.15
42705;BME280;28342;42.594;23.414;2022-10-20T06:06:03;95165.16;;;10.63;75.91
42705;BME280;28342;42.594;23.414;2022-10-20T06:08:30;95160.44;;;10.60;75.97
42705;BME280;28342;42.594;23.414;2022-10-20T06:10:56;95181.72;;;10.73;77.01
42705;BME280;28342;42.594;23.414;2022-10-20T06:13:45;95141.25;;;10.49;76.88
42705;BME280;28342;42.594;23.414;2022-10-20T06:16:13;95187.25;;;10.91;77.54
42705;BME280;28342;42.594;23.414;2022-10-20T06:18:40;95141.19;;;10.68;78.06
42705;BME280;28342;42.594;23.414;2022-10-20T06:21:13;95192.88;;;11.17;77.97
42705;BME280;28342;42.594;23.414;2022-10-20T06:23:39;95203.91;;;11.24;77.55
42705;BME280;28342;42.594;23.414;2022-10-20T06:26:07;95187.88;;;11.29;77.36
42705;BME280;28342;42.594;23.414;2022-10-20T06:28:34;95193.81;;;11.40;77.43
42705;BME280;28342;42.594;23.414;2022-10-20T06:31:09;95196.16;;;11.55;77.28
42705;BME280;28342;42.594;23.414;2022-10-20T06:33:34;95195.09;;;11.56;76.85
42705;BME280;28342;42.594;23.414;2022-10-20T06:36:19;95196.75;;;11.65;76.67
42705;BME280;28342;42.594;23.414;2022-10-20T06:38:54;95176.66;;;11.59;76.65
42705;BME280;28342;42.594;23.414;2022-10-20T06:41:20;95191.72;;;11.78;76.23
42705;BME280;28342;42.594;23.414;2022-10-20T06:43:45;95194.09;;;11.93;75.84
42705;BME280;28342;42.594;23.414;2022-10-20T06:46:13;95184.53;;;11.92;75.04
42705;BME280;28342;42.594;23.414;2022-10-20T06:48:39;95194.84;;;12.07;74.23
42705;BME280;28342;42.594;23.414;2022-10-20T06:51:09;95171.25;;;11.92;73.96
42705;BME280;28342;42.594;23.414;2022-10-20T06:53:35;95206.72;;;12.23;73.75
42705;BME280;28342;42.594;23.414;2022-10-20T06:56:11;95209.91;;;12.25;73.59
42705;BME280;28342;42.594;23.414;2022-10-20T06:58:40;95212.44;;;12.31;73.40
42705;BME280;28342;42.594;23.414;2022-10-20T07:01:12;95173.06;;;12.19;73.12
42705;BME280;28342;42.594;23.414;2022-10-20T07:03:40;95204.81;;;12.38;73.16
42705;BME280;28342;42.594;23.414;2022-10-20T07:06:07;95178.47;;;12.27;73.06
42705;BME280;28342;42.594;23.414;2022-10-20T07:08:34;95209.78;;;12.53;72.73
42705;BME280;28342;42.594;23.414;2022-10-20T07:11:05;95211.00;;;12.69;72.41
42705;BME280;28342;42.594;23.414;2022-10-20T07:13:33;95208.84;;;12.71;72.56
42705;BME280;28342;42.594;23.414;2022-10-20T07:15:59;95201.44;;;12.68;71.82
42705;BME280;28342;42.594;23.414;2022-10-20T07:18:26;95218.13;;;12.82;71.70
42705;BME280;28342;42.594;23.414;2022-10-20T07:20:55;95216.88;;;12.80;71.22
42705;BME280;28342;42.594;23.414;2022-10-20T07:23:20;95203.16;;;12.64;70.99
42705;BME280;28342;42.594;23.414;2022-10-20T07:25:46;95220.16;;;12.77;70.97
42705;BME280;28342;42.594;23.414;2022-10-20T07:28:11;95203.88;;;12.78;71.19
42705;BME280;28342;42.594;23.414;2022-10-20T07:30:41;95183.41;;;12.88;70.62
42705;BME280;28342;42.594;23.414;2022-10-20T07:33:07;95209.31;;;12.96;69.86
42705;BME280;28342;42.594;23.414;2022-10-20T07:35:33;95195.38;;;12.99;69.94
42705;BME280;28342;42.594;23.414;2022-10-20T07:37:59;95214.03;;;13.21;70.26
42705;BME280;28342;42.594;23.414;2022-10-20T07:40:24;95220.47;;;13.29;69.67
42705;BME280;28342;42.594;23.414;2022-10-20T07:42:49;95214.91;;;13.39;68.91
42705;BME280;28342;42.594;23.414;2022-10-20T07:45:15;95213.00;;;13.39;68.49
42705;BME280;28342;42.594;23.414;2022-10-20T07:47:40;95200.00;;;13.46;67.94
42705;BME280;28342;42.594;23.414;2022-10-20T07:50:06;95212.66;;;13.72;67.35
42705;BME280;28342;42.594;23.414;2022-10-20T07:52:32;95213.84;;;13.97;67.54
42705;BME280;28342;42.594;23.414;2022-10-20T07:54:57;95211.63;;;14.07;66.17
42705;BME280;28342;42.594;23.414;2022-10-20T07:57:23;95207.91;;;14.17;65.80
42705;BME280;28342;42.594;23.414;2022-10-20T07:59:48;95209.31;;;14.32;66.13
42705;BME280;28342;42.594;23.414;2022-10-20T08:02:13;95213.13;;;14.48;64.27
42705;BME280;28342;42.594;23.414;2022-10-20T08:04:40;95188.94;;;14.53;63.15
42705;BME280;28342;42.594;23.414;2022-10-20T08:07:11;95218.13;;;14.93;63.16
42705;BME280;28342;42.594;23.414;2022-10-20T08:09:36;95209.66;;;14.91;61.09
42705;BME280;28342;42.594;23.414;2022-10-20T08:12:03;95206.78;;;15.13;61.24
42705;BME280;28342;42.594;23.414;2022-10-20T08:14:28;95191.19;;;15.24;59.55
42705;BME280;28342;42.594;23.414;2022-10-20T08:16:58;95213.59;;;15.49;60.05
42705;BME280;28342;42.594;23.414;2022-10-20T08:19:24;95202.91;;;15.49;58.14
42705;BME280;28342;42.594;23.414;2022-10-20T08:21:50;95217.63;;;15.72;57.99
42705;BME280;28342;42.594;23.414;2022-10-20T08:24:16;95211.16;;;16.03;57.33
42705;BME280;28342;42.594;23.414;2022-10-20T08:26:41;95190.78;;;15.90;55.39
42705;BME280;28342;42.594;23.414;2022-10-20T08:29:07;95196.63;;;16.12;56.09
42705;BME280;28342;42.594;23.414;2022-10-20T08:31:33;95210.94;;;16.37;55.44
42705;BME280;28342;42.594;23.414;2022-10-20T08:33:58;95200.16;;;16.46;53.93
42705;BME280;28342;42.594;23.414;2022-10-20T08:36:45;95166.38;;;16.54;54.89
42705;BME280;28342;42.594;23.414;2022-10-20T08:39:28;95183.72;;;16.77;53.31
42705;BME280;28342;42.594;23.414;2022-10-20T08:41:58;95203.00;;;17.03;53.29
42705;BME280;28342;42.594;23.414;2022-10-20T08:44:27;95184.00;;;16.96;52.50
42705;BME280;28342;42.594;23.414;2022-10-20T08:46:53;95200.03;;;17.17;51.13
42705;BME280;28342;42.594;23.414;2022-10-20T08:49:21;95207.09;;;17.22;51.17
42705;BME280;28342;42.594;23.414;2022-10-20T08:51:47;95192.13;;;17.45;50.58
42705;BME280;28342;42.594;23.414;2022-10-20T08:54:16;95180.19;;;17.55;50.38
42705;BME280;28342;42.594;23.414;2022-10-20T08:56:43;95183.00;;;17.58;50.47
42705;BME280;28342;42.594;23.414;2022-10-20T08:59:35;95191.09;;;17.71;50.84
42705;BME280;28342;42.594;23.414;2022-10-20T09:02:02;95177.63;;;17.34;49.81
42705;BME280;28342;42.594;23.414;2022-10-20T09:04:55;95199.19;;;17.38;48.78
42705;BME280;28342;42.594;23.414;2022-10-20T09:07:32;95185.91;;;17.53;49.50
42705;BME280;28342;42.594;23.414;2022-10-20T09:10:31;95201.16;;;17.86;48.19
42705;BME280;28342;42.594;23.414;2022-10-20T09:12:58;95207.06;;;17.91;47.11
42705;BME280;28342;42.594;23.414;2022-10-20T09:15:25;95203.81;;;17.86;46.32
42705;BME280;28342;42.594;23.414;2022-10-20T09:18:05;95176.97;;;17.61;45.96
42705;BME280;28342;42.594;23.414;2022-10-20T09:23:15;95197.00;;;18.13;46.95
42705;BME280;28342;42.594;23.414;2022-10-20T09:25:42;95201.56;;;18.25;46.52
42705;BME280;28342;42.594;23.414;2022-10-20T09:28:29;95185.22;;;18.17;46.19
42705;BME280;28342;42.594;23.414;2022-10-20T09:30:55;95200.88;;;18.40;47.27
42705;BME280;28342;42.594;23.414;2022-10-20T09:33:28;95165.59;;;18.41;46.24
42705;BME280;28342;42.594;23.414;2022-10-20T09:36:01;95209.31;;;18.66;45.27
42705;BME280;28342;42.594;23.414;2022-10-20T09:38:27;95212.84;;;18.83;45.17
42705;BME280;28342;42.594;23.414;2022-10-20T09:41:27;95202.47;;;18.97;44.09
42705;BME280;28342;42.594;23.414;2022-10-20T09:44:00;95202.00;;;19.07;43.63
42705;BME280;28342;42.594;23.414;2022-10-20T09:46:29;95197.31;;;19.04;43.94
42705;BME280;28342;42.594;23.414;2022-10-20T09:48:57;95202.88;;;19.11;42.98
42705;BME280;28342;42.594;23.414;2022-10-20T09:51:25;95172.28;;;18.88;42.92
42705;BME280;28342;42.594;23.414;2022-10-20T09:56:37;95190.00;;;18.89;41.94
42705;BME280;28342;42.594;23.414;2022-10-20T09:59:20;95180.88;;;18.65;42.78
42705;BME280;28342;42.594;23.414;2022-10-20T10:01:58;95166.59;;;18.37;42.60
42705;BME280;28342;42.594;23.414;2022-10-20T10:04:36;95166.25;;;18.50;42.73
42705;BME280;28342;42.594;23.414;2022-10-20T10:07:05;95151.63;;;18.36;41.80
42705;BME280;28342;42.594;23.414;2022-10-20T10:12:25;95185.19;;;18.42;42.48
42705;BME280;28342;42.594;23.414;2022-10-20T10:14:52;95162.63;;;18.18;42.53
42705;BME280;28342;42.594;23.414;2022-10-20T10:17:40;95147.53;;;18.14;43.15
42705;BME280;28342;42.594;23.414;2022-10-20T10:22:35;95138.28;;;17.50;42.06
42705;BME280;28342;42.594;23.414;2022-10-20T10:25:01;95159.31;;;17.73;42.55
42705;BME280;28342;42.594;23.414;2022-10-20T10:27:33;95154.41;;;17.75;42.82
42705;BME280;28342;42.594;23.414;2022-10-20T10:30:25;95164.91;;;17.68;43.08
42705;BME280;28342;42.594;23.414;2022-10-20T10:32:54;95165.56;;;17.65;43.26
42705;BME280;28342;42.594;23.414;2022-10-20T10:35:36;95147.91;;;17.51;43.90
42705;BME280;28342;42.594;23.414;2022-10-20T10:38:02;95166.50;;;17.69;44.30
42705;BME280;28342;42.594;23.414;2022-10-20T10:40:34;95162.78;;;17.73;44.08
42705;BME280;28342;42.594;23.414;2022-10-20T10:45:59;95152.81;;;17.49;42.79
42705;BME280;28342;42.594;23.414;2022-10-20T10:54:00;95149.31;;;17.24;42.59
42705;BME280;28342;42.594;23.414;2022-10-20T10:56:47;95142.75;;;17.34;43.54
42705;BME280;28342;42.594;23.414;2022-10-20T10:59:22;95145.44;;;17.34;43.44
42705;BME280;28342;42.594;23.414;2022-10-20T11:07:36;95136.03;;;17.16;42.38
42705;BME280;28342;42.594;23.414;2022-10-20T11:10:20;95133.09;;;17.09;41.56
42705;BME280;28342;42.594;23.414;2022-10-20T11:21:20;95120.47;;;17.09;42.21
42705;BME280;28342;42.594;23.414;2022-10-20T11:26:31;95113.69;;;17.24;42.15
42705;BME280;28342;42.594;23.414;2022-10-20T11:28:59;95111.47;;;17.38;42.17
42705;BME280;28342;42.594;23.414;2022-10-20T11:31:38;95108.56;;;17.43;42.11
42705;BME280;28342;42.594;23.414;2022-10-20T11:34:20;95091.81;;;17.34;41.85
42705;BME280;28342;42.594;23.414;2022-10-20T11:36:56;95103.63;;;17.45;40.47
42705;BME280;28342;42.594;23.414;2022-10-20T11:39:44;95099.72;;;17.55;41.21
42705;BME280;28342;42.594;23.414;2022-10-20T11:44:51;95094.25;;;17.63;40.52
42705;BME280;28342;42.594;23.414;2022-10-20T11:47:31;95081.84;;;17.59;40.43
42705;BME280;28342;42.594;23.414;2022-10-20T11:49:59;95103.53;;;17.66;40.00
42705;BME280;28342;42.594;23.414;2022-10-20T11:52:43;95090.69;;;17.72;38.98
42705;BME280;28342;42.594;23.414;2022-10-20T11:55:19;95090.91;;;17.79;39.97
42705;BME280;28342;42.594;23.414;2022-10-20T12:00:59;95083.72;;;17.95;40.18
42705;BME280;28342;42.594;23.414;2022-10-20T12:11:17;95079.69;;;17.89;40.34
42705;BME280;28342;42.594;23.414;2022-10-20T12:17:03;95073.66;;;17.92;41.00
42705;BME280;28342;42.594;23.414;2022-10-20T12:19:34;95080.59;;;17.93;40.01
42705;BME280;28342;42.594;23.414;2022-10-20T12:24:42;95083.78;;;18.11;40.88
42705;BME280;28342;42.594;23.414;2022-10-20T12:27:27;95072.91;;;18.19;40.49
42705;BME280;28342;42.594;23.414;2022-10-20T12:30:02;95071.63;;;18.01;39.95
42705;BME280;28342;42.594;23.414;2022-10-20T12:35:55;95065.13;;;18.02;39.65
42705;BME280;28342;42.594;23.414;2022-10-20T12:37:54;95072.72;;;18.12;39.89
42705;BME280;28342;42.594;23.414;2022-10-20T12:40:48;95073.34;;;18.21;40.81
42705;BME280;28342;42.594;23.414;2022-10-20T12:43:30;95066.47;;;18.08;38.55
42705;BME280;28342;42.594;23.414;2022-10-20T12:45:58;95068.47;;;18.11;39.64
42705;BME280;28342;42.594;23.414;2022-10-20T12:48:46;95057.66;;;17.96;38.56
42705;BME280;28342;42.594;23.414;2022-10-20T12:51:30;95078.75;;;18.09;38.91
42705;BME280;28342;42.594;23.414;2022-10-20T12:54:05;95077.88;;;18.05;39.78
42705;BME280;28342;42.594;23.414;2022-10-20T12:56:35;95090.16;;;18.06;39.48
42705;BME280;28342;42.594;23.414;2022-10-20T13:15:50;95078.25;;;18.19;38.07
42705;BME280;28342;42.594;23.414;2022-10-20T13:18:20;95073.59;;;18.16;38.31
42705;BME280;28342;42.594;23.414;2022-10-20T13:21:01;95078.31;;;18.07;38.14
42705;BME280;28342;42.594;23.414;2022-10-20T13:24:02;95077.00;;;18.01;38.75
42705;BME280;28342;42.594;23.414;2022-10-20T13:28:58;95057.06;;;18.02;38.92
42705;BME280;28342;42.594;23.414;2022-10-20T13:31:35;95077.44;;;17.91;38.41
42705;BME280;28342;42.594;23.414;2022-10-20T13:34:25;95069.97;;;17.97;38.49
42705;BME280;28342;42.594;23.414;2022-10-20T13:37:31;95075.22;;;17.93;38.26
42705;BME280;28342;42.594;23.414;2022-10-20T13:50:29;95072.75;;;18.00;38.48
42705;BME280;28342;42.594;23.414;2022-10-20T13:53:00;95085.28;;;17.96;38.00
42705;BME280;28342;42.594;23.414;2022-10-20T13:55:29;95074.75;;;18.03;37.89
42705;BME280;28342;42.594;23.414;2022-10-20T13:57:58;95057.00;;;17.86;38.16
42705;BME280;28342;42.594;23.414;2022-10-20T14:00:29;95058.66;;;17.91;38.11
42705;BME280;28342;42.594;23.414;2022-10-20T14:02:59;95077.69;;;17.86;38.48
42705;BME280;28342;42.594;23.414;2022-10-20T14:05:27;95080.59;;;17.93;38.83
42705;BME280;28342;42.594;23.414;2022-10-20T14:07:54;95081.38;;;17.94;39.38
42705;BME280;28342;42.594;23.414;2022-10-20T14:10:23;95045.41;;;17.70;39.15
42705;BME280;28342;42.594;23.414;2022-10-20T14:12:50;95055.38;;;17.70;39.02
42705;BME280;28342;42.594;23.414;2022-10-20T14:15:31;95080.38;;;17.86;39.95
42705;BME280;28342;42.594;23.414;2022-10-20T14:18:06;95075.38;;;17.72;39.89
42705;BME280;28342;42.594;23.414;2022-10-20T14:20:35;95053.78;;;17.56;39.86
42705;BME280;28342;42.594;23.414;2022-10-20T14:23:02;95072.34;;;17.49;38.62
42705;BME280;28342;42.594;23.414;2022-10-20T14:25:29;95080.59;;;17.44;38.92
42705;BME280;28342;42.594;23.414;2022-10-20T14:27:57;95073.81;;;17.47;39.41
42705;BME280;28342;42.594;23.414;2022-10-20T14:30:23;95052.47;;;17.38;39.60
42705;BME280;28342;42.594;23.414;2022-10-20T14:32:49;95065.31;;;17.45;39.47
42705;BME280;28342;42.594;23.414;2022-10-20T14:35:22;95063.44;;;17.33;39.30
42705;BME280;28342;42.594;23.414;2022-10-20T14:38:21;95078.59;;;17.41;39.12
42705;BME280;28342;42.594;23.414;2022-10-20T14:40:53;95085.78;;;17.37;39.33
42705;BME280;28342;42.594;23.414;2022-10-20T14:45:58;95084.44;;;17.19;39.94
42705;BME280;28342;42.594;23.414;2022-10-20T14:48:33;95077.25;;;17.11;40.05
42705;BME280;28342;42.594;23.414;2022-10-20T14:51:00;95084.19;;;17.12;40.18
42705;BME280;28342;42.594;23.414;2022-10-20T14:56:23;95066.38;;;16.83;40.70
42705;BME280;28342;42.594;23.414;2022-10-20T14:58:59;95080.38;;;16.88;40.76
42705;BME280;28342;42.594;23.414;2022-10-20T15:01:31;95064.00;;;16.69;40.82
42705;BME280;28342;42.594;23.414;2022-10-20T15:04:23;95082.91;;;16.72;41.66